createdAt,value
2018-07-02T00:00:06.460Z,956.43
2018-07-02T00:01:06.450Z,956.44
2018-07-02T00:02:06.439Z,956.4
2018-07-02T00:03:06.428Z,956.42
2018-07-02T00:04:06.418Z,956.44
2018-07-02T00:05:06.406Z,956.41
2018-07-02T00:06:06.396Z,956.4
2018-07-02T00:07:06.385Z,956.38
2018-07-02T00:08:06.375Z,956.37
2018-07-02T00:09:06.365Z,956.39
2018-07-02T00:10:06.358Z,956.35
2018-07-02T00:11:06.343Z,956.36
2018-07-02T00:12:06.331Z,956.36
2018-07-02T00:13:06.320Z,956.37
2018-07-02T00:14:06.312Z,956.36
2018-07-02T00:15:06.299Z,956.34
2018-07-02T00:16:06.290Z,956.3
2018-07-02T00:17:06.277Z,956.3
2018-07-02T00:18:06.272Z,956.31
2018-07-02T00:19:06.256Z,956.27
2018-07-02T00:20:06.246Z,956.31
2018-07-02T00:21:06.235Z,956.32
2018-07-02T00:22:06.227Z,956.29
2018-07-02T00:23:06.212Z,956.33
2018-07-02T00:24:06.203Z,956.31
2018-07-02T00:25:06.191Z,956.3
2018-07-02T00:26:06.179Z,956.28
2018-07-02T00:27:06.170Z,956.3
2018-07-02T00:28:06.158Z,956.31
2018-07-02T00:29:06.148Z,956.29
2018-07-02T00:30:06.140Z,956.28
2018-07-02T00:31:06.128Z,956.27
2018-07-02T00:32:06.115Z,956.21
2018-07-02T00:33:06.105Z,956.24
2018-07-02T00:34:06.092Z,956.2
2018-07-02T00:35:06.091Z,956.24
2018-07-02T00:36:06.071Z,956.22
2018-07-02T00:37:06.059Z,956.18
2018-07-02T00:38:06.050Z,956.22
2018-07-02T00:39:06.040Z,956.17
2018-07-02T00:40:06.028Z,956.14
2018-07-02T00:41:06.017Z,956.21
2018-07-02T00:42:06.007Z,956.16
2018-07-02T00:43:05.994Z,956.18
2018-07-02T00:44:05.984Z,956.17
2018-07-02T00:45:05.973Z,956.1
2018-07-02T00:46:05.960Z,956.14
2018-07-02T00:47:05.950Z,956.08
2018-07-02T00:48:05.945Z,956.06
2018-07-02T00:49:05.927Z,956.08
2018-07-02T00:50:05.917Z,956.07
2018-07-02T00:51:05.906Z,956.06
2018-07-02T00:52:05.896Z,956.1
2018-07-02T00:53:05.883Z,956.09
2018-07-02T00:54:05.873Z,956.11
2018-07-02T00:55:05.862Z,956.09
2018-07-02T00:56:05.851Z,956.08
2018-07-02T00:57:05.840Z,956.08
2018-07-02T00:58:05.827Z,956.06
2018-07-02T00:59:05.818Z,956.07
2018-07-02T01:00:05.804Z,956.03
2018-07-02T01:01:05.796Z,956.04
2018-07-02T01:02:05.783Z,956
2018-07-02T01:03:05.770Z,956.02
2018-07-02T01:04:05.761Z,956.05
2018-07-02T01:05:05.751Z,956.02
2018-07-02T01:06:05.742Z,956.04
2018-07-02T01:07:05.726Z,956.06
2018-07-02T01:08:05.715Z,956.04
2018-07-02T01:09:05.704Z,956.03
2018-07-02T01:10:05.695Z,955.99
2018-07-02T01:11:05.681Z,956.01
2018-07-02T01:12:05.669Z,955.95
2018-07-02T01:13:05.660Z,955.97
2018-07-02T01:14:05.648Z,955.93
2018-07-02T01:15:05.636Z,955.97
2018-07-02T01:16:05.627Z,955.94
2018-07-02T01:17:05.617Z,955.93
2018-07-02T01:18:05.602Z,955.89
2018-07-02T01:19:05.591Z,955.92
2018-07-02T01:20:05.584Z,955.9
2018-07-02T01:21:05.567Z,955.95
2018-07-02T01:22:05.558Z,955.91
2018-07-02T01:23:05.545Z,955.89
2018-07-02T01:24:05.535Z,955.97
2018-07-02T01:25:05.527Z,955.92
2018-07-02T01:26:05.512Z,955.9
2018-07-02T01:27:05.500Z,955.89
2018-07-02T01:28:05.494Z,955.87
2018-07-02T01:29:05.486Z,955.86
2018-07-02T01:30:05.466Z,955.85
2018-07-02T01:31:05.455Z,955.86
2018-07-02T01:32:05.446Z,955.88
2018-07-02T01:33:05.432Z,955.9
2018-07-02T01:34:05.421Z,955.86
2018-07-02T01:35:05.410Z,955.86
2018-07-02T01:36:05.401Z,955.86
2018-07-02T01:37:05.389Z,955.8
2018-07-02T01:38:05.377Z,955.81
2018-07-02T01:39:05.364Z,955.79
2018-07-02T01:40:05.353Z,955.75
2018-07-02T01:41:05.342Z,955.75
2018-07-02T01:42:05.331Z,955.76
2018-07-02T01:43:05.320Z,955.76
2018-07-02T01:44:05.307Z,955.75
2018-07-02T01:45:05.297Z,955.77
2018-07-02T01:46:05.285Z,955.75
2018-07-02T01:47:05.274Z,955.72
2018-07-02T01:48:05.261Z,955.77
2018-07-02T01:49:05.251Z,955.77
2018-07-02T01:50:05.238Z,955.73
2018-07-02T01:51:05.229Z,955.76
2018-07-02T01:52:05.216Z,955.8
2018-07-02T01:53:05.207Z,955.77
2018-07-02T01:54:05.193Z,955.76
2018-07-02T01:55:05.181Z,955.76
2018-07-02T01:56:05.171Z,955.76
2018-07-02T01:57:05.159Z,955.75
2018-07-02T01:58:05.150Z,955.73
2018-07-02T01:59:05.136Z,955.72
2018-07-02T02:00:05.125Z,955.75
2018-07-02T02:01:05.113Z,955.72
2018-07-02T02:02:05.103Z,955.71
2018-07-02T02:03:05.091Z,955.7
2018-07-02T02:04:05.079Z,955.74
2018-07-02T02:05:05.068Z,955.73
2018-07-02T02:06:05.057Z,955.74
2018-07-02T02:07:05.045Z,955.74
2018-07-02T02:08:05.035Z,955.73
2018-07-02T02:09:05.024Z,955.75
2018-07-02T02:10:05.014Z,955.71
2018-07-02T02:11:05.001Z,955.71
2018-07-02T02:12:04.990Z,955.7
2018-07-02T02:13:04.977Z,955.71
2018-07-02T02:14:04.969Z,955.74
2018-07-02T02:15:04.955Z,955.71
2018-07-02T02:16:04.943Z,955.7
2018-07-02T02:17:04.931Z,955.69
2018-07-02T02:18:04.920Z,955.69
2018-07-02T02:19:04.911Z,955.66
2018-07-02T02:20:04.899Z,955.65
2018-07-02T02:21:04.886Z,955.63
2018-07-02T02:22:04.879Z,955.61
2018-07-02T02:23:04.862Z,955.66
2018-07-02T02:24:04.852Z,955.63
2018-07-02T02:25:04.839Z,955.66
2018-07-02T02:26:04.829Z,955.64
2018-07-02T02:27:04.817Z,955.65
2018-07-02T02:28:04.806Z,955.64
2018-07-02T02:29:04.797Z,955.62
2018-07-02T02:30:04.791Z,955.59
2018-07-02T02:31:04.772Z,955.63
2018-07-02T02:32:04.761Z,955.59
2018-07-02T02:33:04.751Z,955.58
2018-07-02T02:34:04.737Z,955.57
2018-07-02T02:35:04.724Z,955.56
2018-07-02T02:36:04.714Z,955.58
2018-07-02T02:37:04.708Z,955.58
2018-07-02T02:38:04.691Z,955.59
2018-07-02T02:39:04.682Z,955.58
2018-07-02T02:40:04.684Z,955.6
2018-07-02T02:41:04.656Z,955.58
2018-07-02T02:42:04.645Z,955.58
2018-07-02T02:43:04.635Z,955.58
2018-07-02T02:44:04.625Z,955.63
2018-07-02T02:45:04.615Z,955.59
2018-07-02T02:46:04.600Z,955.61
2018-07-02T02:47:04.589Z,955.61
2018-07-02T02:48:04.575Z,955.63
2018-07-02T02:49:04.564Z,955.63
2018-07-02T02:50:04.554Z,955.59
2018-07-02T02:51:04.541Z,955.64
2018-07-02T02:52:04.530Z,955.63
2018-07-02T02:53:04.520Z,955.66
2018-07-02T02:54:04.505Z,955.67
2018-07-02T02:55:04.494Z,955.67
2018-07-02T02:56:04.482Z,955.66
2018-07-02T02:57:04.471Z,955.65
2018-07-02T02:58:04.462Z,955.65
2018-07-02T02:59:04.448Z,955.63
2018-07-02T03:00:04.436Z,955.64
2018-07-02T03:01:04.432Z,955.65
2018-07-02T03:02:04.414Z,955.62
2018-07-02T03:03:04.406Z,955.68
2018-07-02T03:04:04.417Z,955.63
2018-07-02T03:05:04.379Z,955.65
2018-07-02T03:06:04.367Z,955.6
2018-07-02T03:07:04.356Z,955.61
2018-07-02T03:08:04.345Z,955.62
2018-07-02T03:09:04.333Z,955.7
2018-07-02T03:10:04.322Z,955.69
2018-07-02T03:11:04.310Z,955.73
2018-07-02T03:12:04.299Z,955.72
2018-07-02T03:13:04.287Z,955.77
2018-07-02T03:14:04.274Z,955.76
2018-07-02T03:15:04.262Z,955.77
2018-07-02T03:16:04.251Z,955.83
2018-07-02T03:17:04.240Z,955.8
2018-07-02T03:18:04.229Z,955.77
2018-07-02T03:19:04.215Z,955.79
2018-07-02T03:20:04.204Z,955.74
2018-07-02T03:21:04.199Z,955.77
2018-07-02T03:22:04.179Z,955.74
2018-07-02T03:23:04.168Z,955.75
2018-07-02T03:24:04.157Z,955.71
2018-07-02T03:25:04.146Z,955.7
2018-07-02T03:26:04.136Z,955.75
2018-07-02T03:27:04.126Z,955.74
2018-07-02T03:28:04.110Z,955.71
2018-07-02T03:29:04.097Z,955.78
2018-07-02T03:30:04.088Z,955.81
2018-07-02T03:31:04.075Z,955.78
2018-07-02T03:32:04.063Z,955.78
2018-07-02T03:33:04.051Z,955.75
2018-07-02T03:34:04.037Z,955.78
2018-07-02T03:35:04.027Z,955.75
2018-07-02T03:36:04.014Z,955.79
2018-07-02T03:37:04.004Z,955.79
2018-07-02T03:38:03.990Z,955.74
2018-07-02T03:39:03.980Z,955.77
2018-07-02T03:40:03.967Z,955.77
2018-07-02T03:41:03.955Z,955.77
2018-07-02T03:42:03.944Z,955.83
2018-07-02T03:43:03.932Z,955.77
2018-07-02T03:44:03.920Z,955.77
2018-07-02T03:45:03.908Z,955.76
2018-07-02T03:46:03.899Z,955.73
2018-07-02T03:47:03.884Z,955.73
2018-07-02T03:48:03.874Z,955.72
2018-07-02T03:49:03.861Z,955.73
2018-07-02T03:50:03.852Z,955.73
2018-07-02T03:51:03.836Z,955.73
2018-07-02T03:52:03.885Z,955.7
2018-07-02T03:53:03.812Z,955.68
2018-07-02T03:54:03.801Z,955.69
2018-07-02T03:55:03.790Z,955.68
2018-07-02T03:56:03.776Z,955.7
2018-07-02T03:57:03.765Z,955.71
2018-07-02T03:58:03.752Z,955.73
2018-07-02T03:59:03.741Z,955.76
2018-07-02T04:00:03.729Z,955.77
2018-07-02T04:01:03.718Z,955.76
2018-07-02T04:02:03.704Z,955.75
2018-07-02T04:03:03.696Z,955.72
2018-07-02T04:04:03.682Z,955.68
2018-07-02T04:05:03.670Z,955.65
2018-07-02T04:06:03.656Z,955.63
2018-07-02T04:07:03.646Z,955.65
2018-07-02T04:08:03.634Z,955.63
2018-07-02T04:09:03.623Z,955.64
2018-07-02T04:10:03.609Z,955.67
2018-07-02T04:11:03.597Z,955.7
2018-07-02T04:12:03.614Z,955.67
2018-07-02T04:13:03.622Z,955.7
2018-07-02T04:14:03.562Z,955.69
2018-07-02T04:15:03.551Z,955.72
2018-07-02T04:16:03.540Z,955.72
2018-07-02T04:17:03.525Z,955.76
2018-07-02T04:18:03.516Z,955.72
2018-07-02T04:19:03.502Z,955.71
2018-07-02T04:20:03.491Z,955.73
2018-07-02T04:21:03.480Z,955.71
2018-07-02T04:22:03.468Z,955.71
2018-07-02T04:23:03.454Z,955.75
2018-07-02T04:24:03.443Z,955.76
2018-07-02T04:25:03.430Z,955.73
2018-07-02T04:26:03.431Z,955.72
2018-07-02T04:27:03.409Z,955.7
2018-07-02T04:28:03.397Z,955.75
2018-07-02T04:29:03.384Z,955.75
2018-07-02T04:30:03.373Z,955.75
2018-07-02T04:31:03.360Z,955.75
2018-07-02T04:32:03.348Z,955.74
2018-07-02T04:33:03.337Z,955.72
2018-07-02T04:34:03.329Z,955.74
2018-07-02T04:35:03.314Z,955.72
2018-07-02T04:36:03.302Z,955.69
2018-07-02T04:37:03.290Z,955.69
2018-07-02T04:38:03.282Z,955.72
2018-07-02T04:39:03.269Z,955.71
2018-07-02T04:40:03.257Z,955.72
2018-07-02T04:41:03.245Z,955.75
2018-07-02T04:42:03.235Z,955.71
2018-07-02T04:43:03.700Z,955.7
2018-07-02T04:44:03.210Z,955.71
2018-07-02T04:45:03.259Z,955.71
2018-07-02T04:46:03.188Z,955.66
2018-07-02T04:47:03.176Z,955.66
2018-07-02T04:48:03.168Z,955.64
2018-07-02T04:49:03.152Z,955.63
2018-07-02T04:50:03.141Z,955.67
2018-07-02T04:51:03.151Z,955.66
2018-07-02T04:52:03.121Z,955.63
2018-07-02T04:53:03.108Z,955.66
2018-07-02T04:54:03.097Z,955.62
2018-07-02T04:55:03.087Z,955.63
2018-07-02T04:56:03.075Z,955.65
2018-07-02T04:57:03.063Z,955.58
2018-07-02T04:58:03.055Z,955.62
2018-07-02T04:59:03.042Z,955.66
2018-07-02T05:00:03.031Z,955.6
2018-07-02T05:01:03.025Z,955.6
2018-07-02T05:02:03.010Z,955.59
2018-07-02T05:03:02.998Z,955.63
2018-07-02T05:04:02.986Z,955.64
2018-07-02T05:05:02.979Z,955.65
2018-07-02T05:06:02.967Z,955.65
2018-07-02T05:07:02.955Z,955.62
2018-07-02T05:08:02.946Z,955.61
2018-07-02T05:09:02.934Z,955.61
2018-07-02T05:10:02.923Z,955.59
2018-07-02T05:11:02.915Z,955.59
2018-07-02T05:12:02.902Z,955.6
2018-07-02T05:13:02.890Z,955.55
2018-07-02T05:14:02.883Z,955.55
2018-07-02T05:15:02.868Z,955.62
2018-07-02T05:16:02.859Z,955.56
2018-07-02T05:17:02.897Z,955.6
2018-07-02T05:18:02.840Z,955.56
2018-07-02T05:19:02.827Z,955.63
2018-07-02T05:20:02.817Z,955.63
2018-07-02T05:21:02.807Z,955.65
2018-07-02T05:22:02.795Z,955.69
2018-07-02T05:23:02.785Z,955.68
2018-07-02T05:24:02.775Z,955.64
2018-07-02T05:25:02.766Z,955.65
2018-07-02T05:26:02.754Z,955.64
2018-07-02T05:27:02.743Z,955.59
2018-07-02T05:28:02.732Z,955.61
2018-07-02T05:29:02.722Z,955.56
2018-07-02T05:30:02.715Z,955.6
2018-07-02T05:31:02.707Z,955.63
2018-07-02T05:32:02.693Z,955.63
2018-07-02T05:33:02.681Z,955.65
2018-07-02T05:34:02.671Z,955.65
2018-07-02T05:35:02.661Z,955.68
2018-07-02T05:36:02.651Z,955.63
2018-07-02T05:37:02.643Z,955.65
2018-07-02T05:38:02.635Z,955.63
2018-07-02T05:39:02.620Z,955.63
2018-07-02T05:40:02.611Z,955.64
2018-07-02T05:41:02.603Z,955.61
2018-07-02T05:42:02.589Z,955.63
2018-07-02T05:43:02.580Z,955.66
2018-07-02T05:44:02.569Z,955.64
2018-07-02T05:45:02.563Z,955.67
2018-07-02T05:46:02.550Z,955.73
2018-07-02T05:47:02.545Z,955.71
2018-07-02T05:48:02.531Z,955.7
2018-07-02T05:49:02.522Z,955.7
2018-07-02T05:50:02.513Z,955.76
2018-07-02T05:51:02.502Z,955.7
2018-07-02T05:52:02.492Z,955.73
2018-07-02T05:53:02.482Z,955.72
2018-07-02T05:54:02.473Z,955.71
2018-07-02T05:55:02.464Z,955.72
2018-07-02T05:56:02.456Z,955.77
2018-07-02T05:57:02.445Z,955.75
2018-07-02T05:58:02.436Z,955.76
2018-07-02T05:59:02.432Z,955.78
2018-07-02T06:00:02.421Z,955.8
2018-07-02T06:01:02.411Z,955.77
2018-07-02T06:02:02.400Z,955.76
2018-07-02T06:03:02.391Z,955.74
2018-07-02T06:04:02.381Z,955.7
2018-07-02T06:05:02.376Z,955.72
2018-07-02T06:06:02.575Z,955.68
2018-07-02T06:07:02.354Z,955.7
2018-07-02T06:08:02.386Z,955.72
2018-07-02T06:09:02.338Z,955.72
2018-07-02T06:10:02.327Z,955.73
2018-07-02T06:11:02.319Z,955.76
2018-07-02T06:12:02.318Z,955.78
2018-07-02T06:13:02.302Z,955.77
2018-07-02T06:14:02.299Z,955.8
2018-07-02T06:15:02.291Z,955.78
2018-07-02T06:16:02.289Z,955.79
2018-07-02T06:17:02.271Z,955.84
2018-07-02T06:18:02.264Z,955.81
2018-07-02T06:19:02.254Z,955.83
2018-07-02T06:20:02.246Z,955.83
2018-07-02T06:21:02.237Z,955.78
2018-07-02T06:22:02.229Z,955.77
2018-07-02T06:23:02.219Z,955.79
2018-07-02T06:24:02.217Z,955.79
2018-07-02T06:25:02.205Z,955.79
2018-07-02T06:26:02.196Z,955.78
2018-07-02T06:27:02.189Z,955.77
2018-07-02T06:28:02.181Z,955.77
2018-07-02T06:29:02.174Z,955.77
2018-07-02T06:30:02.166Z,955.76
2018-07-02T06:31:02.159Z,955.81
2018-07-02T06:32:02.148Z,955.75
2018-07-02T06:33:02.141Z,955.75
2018-07-02T06:34:02.134Z,955.72
2018-07-02T06:35:02.126Z,955.75
2018-07-02T06:36:02.118Z,955.76
2018-07-02T06:37:02.120Z,955.72
2018-07-02T06:38:02.105Z,955.72
2018-07-02T06:39:02.096Z,955.74
2018-07-02T06:40:02.090Z,955.79
2018-07-02T06:41:02.107Z,955.74
2018-07-02T06:42:02.082Z,955.73
2018-07-02T06:43:02.069Z,955.77
2018-07-02T06:44:02.059Z,955.76
2018-07-02T06:45:02.055Z,955.79
2018-07-02T06:46:02.047Z,955.8
2018-07-02T06:47:02.040Z,955.8
2018-07-02T06:48:02.035Z,955.79
2018-07-02T06:49:02.030Z,955.81
2018-07-02T06:50:02.023Z,955.83
2018-07-02T06:51:02.022Z,955.84
2018-07-02T06:52:02.016Z,955.84
2018-07-02T06:53:02.011Z,955.9
2018-07-02T06:54:02.008Z,955.92
2018-07-02T06:55:02.004Z,955.9
2018-07-02T06:56:02.002Z,955.94
2018-07-02T06:57:01.998Z,955.94
2018-07-02T06:58:01.997Z,955.96
2018-07-02T06:59:01.994Z,955.87
2018-07-02T07:00:01.994Z,955.92
2018-07-02T07:01:01.991Z,955.91
2018-07-02T07:02:01.992Z,955.89
2018-07-02T07:03:01.992Z,955.89
2018-07-02T07:04:01.991Z,955.84
2018-07-02T07:05:01.991Z,955.9
2018-07-02T07:06:01.993Z,955.97
2018-07-02T07:07:01.991Z,955.92
2018-07-02T07:08:01.992Z,955.91
2018-07-02T07:09:01.992Z,955.95
2018-07-02T07:10:01.997Z,955.93
2018-07-02T07:11:01.997Z,955.96
2018-07-02T07:12:01.996Z,955.9
2018-07-02T07:13:01.999Z,955.95
2018-07-02T07:14:02.001Z,955.91
2018-07-02T07:15:02.003Z,955.92
2018-07-02T07:16:02.003Z,955.9
2018-07-02T07:17:02.008Z,955.86
2018-07-02T07:18:02.008Z,955.89
2018-07-02T07:19:02.010Z,955.89
2018-07-02T07:20:02.012Z,955.92
2018-07-02T07:21:02.025Z,955.88
2018-07-02T07:22:02.031Z,955.89
2018-07-02T07:23:02.022Z,955.86
2018-07-02T07:24:02.024Z,955.9
2018-07-02T07:25:02.027Z,955.92
2018-07-02T07:26:02.029Z,955.94
2018-07-02T07:27:02.033Z,955.9
2018-07-02T07:28:02.036Z,955.91
2018-07-02T07:29:02.038Z,955.87
2018-07-02T07:30:02.042Z,955.88
2018-07-02T07:31:02.065Z,955.87
2018-07-02T07:32:02.077Z,955.93
2018-07-02T07:33:02.055Z,955.93
2018-07-02T07:34:02.054Z,955.93
2018-07-02T07:35:02.059Z,955.99
2018-07-02T07:36:02.066Z,955.91
2018-07-02T07:37:02.066Z,955.92
2018-07-02T07:38:02.071Z,955.86
2018-07-02T07:39:02.073Z,955.91
2018-07-02T07:40:02.080Z,955.85
2018-07-02T07:41:02.082Z,955.85
2018-07-02T07:42:02.090Z,955.9
2018-07-02T07:43:02.091Z,955.85
2018-07-02T07:44:02.095Z,955.89
2018-07-02T07:45:02.100Z,955.78
2018-07-02T07:46:02.106Z,955.85
2018-07-02T07:47:02.108Z,955.83
2018-07-02T07:48:02.112Z,955.81
2018-07-02T07:49:02.118Z,955.78
2018-07-02T07:50:02.124Z,955.81
2018-07-02T07:51:02.127Z,955.75
2018-07-02T07:52:02.130Z,955.71
2018-07-02T07:53:02.136Z,955.78
2018-07-02T07:54:02.141Z,955.76
2018-07-02T07:55:02.145Z,955.79
2018-07-02T07:56:02.148Z,955.79
2018-07-02T07:57:02.157Z,955.83
2018-07-02T07:58:02.163Z,955.84
2018-07-02T07:59:02.162Z,955.82
2018-07-02T08:00:02.166Z,955.83
2018-07-02T08:01:02.176Z,955.84
2018-07-02T08:02:02.176Z,955.86
2018-07-02T08:03:02.184Z,955.88
2018-07-02T08:04:02.183Z,955.77
2018-07-02T08:05:02.187Z,955.81
2018-07-02T08:06:02.194Z,955.78
2018-07-02T08:07:02.196Z,955.77
2018-07-02T08:08:02.203Z,955.79
2018-07-02T08:09:02.202Z,955.75
2018-07-02T08:10:02.208Z,955.8
2018-07-02T08:11:02.211Z,955.78
2018-07-02T08:12:02.225Z,955.82
2018-07-02T08:13:02.220Z,955.77
2018-07-02T08:14:02.218Z,955.8
2018-07-02T08:15:02.222Z,955.77
2018-07-02T08:16:02.225Z,955.75
2018-07-02T08:17:02.229Z,955.78
2018-07-02T08:18:02.230Z,955.8
2018-07-02T08:19:02.316Z,955.78
2018-07-02T08:20:02.236Z,955.77
2018-07-02T08:21:02.239Z,955.75
2018-07-02T08:22:02.240Z,955.73
2018-07-02T08:23:02.244Z,955.75
2018-07-02T08:24:02.244Z,955.69
2018-07-02T08:25:02.245Z,955.67
2018-07-02T08:26:02.246Z,955.66
2018-07-02T08:27:02.247Z,955.69
2018-07-02T08:28:02.248Z,955.69
2018-07-02T08:29:02.248Z,955.72
2018-07-02T08:30:02.253Z,955.69
2018-07-02T08:31:02.250Z,955.74
2018-07-02T08:32:02.252Z,955.7
2018-07-02T08:33:02.388Z,955.72
2018-07-02T08:34:02.251Z,955.71
2018-07-02T08:35:02.253Z,955.73
2018-07-02T08:36:02.256Z,955.7
2018-07-02T08:37:02.255Z,955.72
2018-07-02T08:38:02.251Z,955.7
2018-07-02T08:39:02.250Z,955.75
2018-07-02T08:40:02.290Z,955.77
2018-07-02T08:41:02.252Z,955.74
2018-07-02T08:42:02.253Z,955.77
2018-07-02T08:43:02.246Z,955.78
2018-07-02T08:44:02.247Z,955.8
2018-07-02T08:45:02.246Z,955.83
2018-07-02T08:46:02.244Z,955.84
2018-07-02T08:47:02.243Z,955.8
2018-07-02T08:48:02.242Z,955.82
2018-07-02T08:49:02.241Z,955.77
2018-07-02T08:50:02.242Z,955.72
2018-07-02T08:51:02.240Z,955.82
2018-07-02T08:52:02.236Z,955.84
2018-07-02T08:53:02.238Z,955.86
2018-07-02T08:54:02.235Z,955.88
2018-07-02T08:55:02.234Z,955.81
2018-07-02T08:56:02.231Z,955.9
2018-07-02T08:57:02.229Z,955.85
2018-07-02T08:58:02.228Z,955.84
2018-07-02T08:59:02.225Z,955.89
2018-07-02T09:00:02.224Z,955.86
2018-07-02T09:01:02.223Z,955.83
2018-07-02T09:02:02.220Z,955.88
2018-07-02T09:03:02.222Z,955.88
2018-07-02T09:04:02.218Z,955.76
2018-07-02T09:05:02.214Z,955.77
2018-07-02T09:06:02.213Z,955.77
2018-07-02T09:07:02.215Z,955.77
2018-07-02T09:08:02.209Z,955.77
2018-07-02T09:09:02.207Z,955.77
2018-07-02T09:10:02.207Z,955.84
2018-07-02T09:11:02.205Z,955.84
2018-07-02T09:12:02.201Z,955.75
2018-07-02T09:13:02.199Z,955.77
2018-07-02T09:14:02.197Z,955.77
2018-07-02T09:15:02.197Z,955.79
2018-07-02T09:16:02.194Z,955.78
2018-07-02T09:17:02.192Z,955.78
2018-07-02T09:18:02.190Z,955.73
2018-07-02T09:19:02.192Z,955.8
2018-07-02T09:20:02.186Z,955.78
2018-07-02T09:21:02.184Z,955.76
2018-07-02T09:22:02.185Z,955.73
2018-07-02T09:23:02.185Z,955.76
2018-07-02T09:24:02.179Z,955.71
2018-07-02T09:25:02.177Z,955.69
2018-07-02T09:26:02.176Z,955.69
2018-07-02T09:27:02.176Z,955.73
2018-07-02T09:28:02.173Z,955.77
2018-07-02T09:29:02.171Z,955.74
2018-07-02T09:30:02.238Z,955.7
2018-07-02T09:31:02.167Z,955.69
2018-07-02T09:32:02.167Z,955.63
2018-07-02T09:33:02.164Z,955.62
2018-07-02T09:34:02.165Z,955.6
2018-07-02T09:35:02.159Z,955.65
2018-07-02T09:36:02.157Z,955.67
2018-07-02T09:37:02.157Z,955.66
2018-07-02T09:38:02.160Z,955.61
2018-07-02T09:39:02.153Z,955.58
2018-07-02T09:40:02.151Z,955.65
2018-07-02T09:41:02.149Z,955.62
2018-07-02T09:42:02.147Z,955.58
2018-07-02T09:43:02.144Z,955.61
2018-07-02T09:44:02.143Z,955.61
2018-07-02T09:45:02.139Z,955.57
2018-07-02T09:46:02.138Z,955.6
2018-07-02T09:47:02.137Z,955.64
2018-07-02T09:48:02.135Z,955.59
2018-07-02T09:49:02.132Z,955.63
2018-07-02T09:50:02.131Z,955.6
2018-07-02T09:51:02.129Z,955.57
2018-07-02T09:52:02.126Z,955.53
2018-07-02T09:53:02.125Z,955.59
2018-07-02T09:54:02.123Z,955.56
2018-07-02T09:55:02.122Z,955.62
2018-07-02T09:56:02.119Z,955.64
2018-07-02T09:57:02.122Z,955.62
2018-07-02T09:58:02.116Z,955.56
2018-07-02T09:59:02.115Z,955.59
2018-07-02T10:00:02.112Z,955.58
2018-07-02T10:01:02.110Z,955.6
2018-07-02T10:02:02.110Z,955.62
2018-07-02T10:03:02.107Z,955.63
2018-07-02T10:04:02.103Z,955.62
2018-07-02T10:05:02.102Z,955.58
2018-07-02T10:06:02.101Z,955.63
2018-07-02T10:07:02.098Z,955.63
2018-07-02T10:08:02.095Z,955.64
2018-07-02T10:09:02.095Z,955.66
2018-07-02T10:10:02.094Z,955.58
2018-07-02T10:11:02.093Z,955.63
2018-07-02T10:12:02.091Z,955.65
2018-07-02T10:13:02.089Z,955.62
2018-07-02T10:14:02.090Z,955.61
2018-07-02T10:15:02.083Z,955.61
2018-07-02T10:16:02.082Z,955.61
2018-07-02T10:17:02.080Z,955.62
2018-07-02T10:18:02.077Z,955.62
2018-07-02T10:19:02.076Z,955.71
2018-07-02T10:20:02.075Z,955.67
2018-07-02T10:21:02.073Z,955.64
2018-07-02T10:22:02.074Z,955.67
2018-07-02T10:23:02.068Z,955.65
2018-07-02T10:24:02.072Z,955.67
2018-07-02T10:25:02.070Z,955.68
2018-07-02T10:26:02.065Z,955.65
2018-07-02T10:27:02.134Z,955.68
2018-07-02T10:28:02.060Z,955.73
2018-07-02T10:29:02.074Z,955.71
2018-07-02T10:30:02.055Z,955.69
2018-07-02T10:31:02.109Z,955.64
2018-07-02T10:32:02.051Z,955.65
2018-07-02T10:33:02.048Z,955.67
2018-07-02T10:34:02.046Z,955.66
2018-07-02T10:35:02.045Z,955.64
2018-07-02T10:36:02.044Z,955.64
2018-07-02T10:37:02.040Z,955.66
2018-07-02T10:38:02.040Z,955.65
2018-07-02T10:39:02.088Z,955.68
2018-07-02T10:40:02.165Z,955.62
2018-07-02T10:41:02.036Z,955.67
2018-07-02T10:42:02.031Z,955.61
2018-07-02T10:43:02.030Z,955.59
2018-07-02T10:44:02.026Z,955.6
2018-07-02T10:45:02.026Z,955.59
2018-07-02T10:46:02.025Z,955.62
2018-07-02T10:47:02.072Z,955.61
2018-07-02T10:48:02.021Z,955.63
2018-07-02T10:49:02.022Z,955.6
2018-07-02T10:50:02.015Z,955.6
2018-07-02T10:51:02.014Z,955.56
2018-07-02T10:52:02.011Z,955.55
2018-07-02T10:53:02.011Z,955.6
2018-07-02T10:54:02.008Z,955.57
2018-07-02T10:55:02.012Z,955.53
2018-07-02T10:56:02.007Z,955.52
2018-07-02T10:57:02.007Z,955.56
2018-07-02T10:58:02.001Z,955.57
2018-07-02T10:59:02.017Z,955.61
2018-07-02T11:00:01.999Z,955.54
2018-07-02T11:01:01.997Z,955.57
2018-07-02T11:02:01.996Z,955.61
2018-07-02T11:03:01.992Z,955.6
2018-07-02T11:04:01.991Z,955.63
2018-07-02T11:05:01.992Z,955.58
2018-07-02T11:06:01.990Z,955.51
2018-07-02T11:07:01.989Z,955.58
2018-07-02T11:08:01.997Z,955.5
2018-07-02T11:09:01.983Z,955.53
2018-07-02T11:10:01.982Z,955.5
2018-07-02T11:11:01.993Z,955.54
2018-07-02T11:12:01.979Z,955.53
2018-07-02T11:13:01.976Z,955.52
2018-07-02T11:14:01.975Z,955.53
2018-07-02T11:15:01.976Z,955.5
2018-07-02T11:16:01.971Z,955.53
2018-07-02T11:17:01.978Z,955.5
2018-07-02T11:18:01.971Z,955.43
2018-07-02T11:19:01.968Z,955.4
2018-07-02T11:20:01.965Z,955.42
2018-07-02T11:21:01.965Z,955.38
2018-07-02T11:22:01.962Z,955.38
2018-07-02T11:23:01.961Z,955.36
2018-07-02T11:24:01.959Z,955.33
2018-07-02T11:25:01.962Z,955.33
2018-07-02T11:26:01.957Z,955.29
2018-07-02T11:27:01.955Z,955.27
2018-07-02T11:28:01.952Z,955.31
2018-07-02T11:29:01.951Z,955.33
2018-07-02T11:30:01.956Z,955.27
2018-07-02T11:31:01.953Z,955.27
2018-07-02T11:32:01.951Z,955.26
2018-07-02T11:33:01.946Z,955.27
2018-07-02T11:34:01.945Z,955.3
2018-07-02T11:35:01.943Z,955.3
2018-07-02T11:36:01.940Z,955.33
2018-07-02T11:37:01.940Z,955.33
2018-07-02T11:38:01.938Z,955.31
2018-07-02T11:39:01.938Z,955.28
2018-07-02T11:40:01.937Z,955.28
2018-07-02T11:41:01.935Z,955.22
2018-07-02T11:42:01.931Z,955.2
2018-07-02T11:43:01.930Z,955.19
2018-07-02T11:44:01.950Z,955.14
2018-07-02T11:45:01.927Z,955.2
2018-07-02T11:46:01.925Z,955.17
2018-07-02T11:47:01.926Z,955.21
2018-07-02T11:48:01.928Z,955.15
2018-07-02T11:49:01.922Z,955.15
2018-07-02T11:50:01.923Z,955.19
2018-07-02T11:51:01.922Z,955.2
2018-07-02T11:52:01.919Z,955.22
2018-07-02T11:53:01.916Z,955.21
2018-07-02T11:54:01.914Z,955.19
2018-07-02T11:55:01.913Z,955.18
2018-07-02T11:56:01.964Z,955.17
2018-07-02T11:57:01.917Z,955.16
2018-07-02T11:58:01.910Z,955.15
2018-07-02T11:59:01.909Z,955.15
2018-07-02T12:00:01.908Z,955.13
2018-07-02T12:01:01.904Z,955.18
2018-07-02T12:02:01.941Z,955.18
2018-07-02T12:03:01.904Z,955.19
2018-07-02T12:04:01.901Z,955.18
2018-07-02T12:05:01.902Z,955.19
2018-07-02T12:06:01.897Z,955.2
2018-07-02T12:07:01.896Z,955.24
2018-07-02T12:08:01.894Z,955.2
2018-07-02T12:09:01.892Z,955.2
2018-07-02T12:10:01.895Z,955.19
2018-07-02T12:11:01.890Z,955.23
2018-07-02T12:12:01.886Z,955.22
2018-07-02T12:13:01.886Z,955.21
2018-07-02T12:14:01.885Z,955.23
2018-07-02T12:15:01.885Z,955.29
2018-07-02T12:16:01.881Z,955.28
2018-07-02T12:17:01.878Z,955.25
2018-07-02T12:18:01.877Z,955.28
2018-07-02T12:19:01.877Z,955.29
2018-07-02T12:20:01.873Z,955.29
2018-07-02T12:21:01.874Z,955.28
2018-07-02T12:22:01.872Z,955.3
2018-07-02T12:23:01.869Z,955.27
2018-07-02T12:24:01.867Z,955.3
2018-07-02T12:25:01.865Z,955.27
2018-07-02T12:26:01.865Z,955.19
2018-07-02T12:27:01.862Z,955.16
2018-07-02T12:28:01.863Z,955.19
2018-07-02T12:29:01.866Z,955.19
2018-07-02T12:30:01.860Z,955.19
2018-07-02T12:31:01.856Z,955.18